Historyczne dane pomiarowe

Dodano dane terminowe – wersja testowa.

Dane z okresu 1951-2019

Wersja bazy: 1.34 [2019-03-16, lista zmian], aktualizacja planowana na 2019-04-15

Dane meteo z obszaru Polski uzyskane na podstawie danych udostępnionych przez Instytut Meteorologii i Gospodarki Wodnej – Państwowy Instytut Badawczy.

 

Wybierz Datę:    

       

TemperaturaWilgotnośćWiatrCiśnienieOpadyŚniegCzas trwania zjawisk
 Stacja t tx tn tng RH VA  wxwx mslp ppp RRR   cm mm wxwxwxwxwxwxwx
2014-10-11 12.2 21.3 6.9- 94.3- 3.3 0.7---- 0.0------------
2014-10-12 12.4 20.8 7.1- 96.0- 3.7 1.0---- 0.0------------
2014-10-13 13.2 20.3 8.4- 99.0- 5.3 1.0---- 0.0------------
2014-10-14 15.7 21.5 10.4- 91.8- 3.0 2.0---- 0.0------------
2014-10-15 8.9 15.0 4.0- 98.3- 7.7 0.7---- 4.8------------
2014-10-16 12.0 17.5 8.5- 94.3- 6.0 1.7---- 1.0------------
2014-10-17 10.4 13.2 8.4- 99.3- 8.0 1.7---- 12.1------------
2014-10-18 8.4 12.0 5.7- 93.8- 7.7 1.0---- 7.9------------
2014-10-19 9.5 15.7 5.6- 95.8- 3.3 2.3---- 0.0------------
2014-10-20 11.2 17.2 4.9- 95.3- 4.7 1.7---- 0.2------------
2014-10-21 8.1 15.7 4.9- 93.5- 5.0 1.3---- 3.9------------
2014-10-22 6.3 8.7 4.1- 94.8- 8.0 1.3---- 22.1------------
2014-10-23 4.0 7.0 2.0- 99.5- 8.0 3.3---- 5.2------------
2014-10-24 -0.2 2.9 -1.7- 95.3- 8.0 3.3---- 0.2------------
2014-10-25 2.5 10.1 -2.2- 94.5- 4.7 0.7---- 0.0------------
2014-10-26 2.4 11.6 -1.2- 89.3- 3.0 1.0---- 0.0------------
2014-10-27 2.1 15.3 -4.6- 86.0- 0.0 0.3---- 0.0------------
2014-10-28 2.3 15.1 -4.0- 97.3- 0.0 0.7---- 0.0------------
2014-10-29 0.8 12.5 -5.1- 96.5- 0.7 1.3---- 0.0------------
2014-10-30 1.7 11.7 -3.6- 88.3- 3.0 0.3---- 0.9------------
2014-10-31 2.8 7.8 -0.6- 94.0- 4.7 2.0---- 0.0------------
2014-11-01 2.4 11.1 -2.8- 91.5- 6.0 0.7---- 0.0------------
2014-11-02 3.6 5.5 1.9- 99.3- 8.0 2.0---- 0.0------------
2014-11-03 6.1 11.7 3.3- 88.3- 3.0 3.3---- 0.0------------
2014-11-04 8.9 13.4 4.1- 72.3- 1.7 5.7---- 0.0------------
2014-11-05 11.2 15.3 9.2- 70.0- 1.0 4.0---- 0.0------------
2014-11-06 11.4 16.7 7.8- 77.8- 4.7 2.0---- 0.0------------
2014-11-07 12.1 16.0 7.5- 82.8- 7.3 3.0---- 0.4------------
2014-11-08 11.2 16.4 8.9- 94.8- 7.3 2.0---- 0.0------------
2014-11-09 10.2 18.3 6.9- 94.5- 4.3 0.7---- 0.0------------
119.2 ms

 

Źródłem pochodzenia danych jest Instytut Meteorologii i Gospodarki Wodnej – Państwowy Instytut Badawczy. Dane Instytutu Meteorologii i Gospodarki Wodnej – Państwowego Instytutu Badawczego zostały przetworzone.

Dane źródłowe można odnaleźć na stronie https://dane.imgw.pl